Accueil
METAR-TAF:

METAR-TAF

Aéroports :

Schwäbisch Hall, Allemagne

latitude: 49-07-06N, longitude: 9-47-02E, altitude: 398 m

Observation

Le bulletin a été fait il y a 21 minutes, à 19:50 UTC
Vent 2 kt de direction variable
Température 15°C
Humidité 77%
Pression 1019 hPa
Visibilité 10 km ou plus

METAR: EDTY 041950Z AUTO VRB02KT 9999 // FEW067/// 15/11 Q1019

Heure: 22:11 (20:11 UTC)

Prévision

Le bulletin a été fait il y a 3 heures et 11 minutes, à 17:00 UTC
Prévision valable du 04 à 18 UTC au 05 à 03 UTC
Vent 3 kt de direction variable
Visibilité 10 km ou plus
pas de nuages en-dessous de 1500 mètres et pas de cumulonimbus.
Evoluant progressivement
du 04 à 23 UTC au 05 à 02 UTC
Visibilité: 0500 m
brouillard

TAF: EDTY 041700Z 0418/0503 VRB03KT CAVOK BECMG 0423/0502 0500 FG

Observations et prévisions météorologiques de plus de 4000 aéroports (messages METAR et TAF).

Les stations disponibles sont représentées par des disques jaunes et rouges sur la carte.

Passer la souris dessus pour voir le nom de la station.

Cliquer dessus pour voir les observations et prévisions météorologiques.

Pour changer de carte: cliquez sur les boutons verts avec une croix noire pour zoomer, sur le bouton vert avec un tiret pour effectuer un zoom arrière, ou sur les flèches vertes pour les cartes adjacentes.


METAR-TAF: